Pagrindinis puslapis
METAR-TAF:

METAR-TAF

Oro uostai :

Agadesas, Nigeris

platuma: 16-58N, ilguma: 007-59E, Aukštis: 501 m

Dabartinis oras

Ataskaita buvo paskelbta 3 valandos ir 57 minutes, ne 18:00 UTC
Vėjas 8 kt iš Rytų
Temperatūra 36°C
Drėgmė 18%
Slėgis 1009 hPa
Matomumas 10 km arba daugiau
nėra debesų žemiau 1500 m ir nėra kamuolinių lietaus debesų

METAR: DRZA 241800Z 10008KT CAVOK 36/08 Q1009

Laikas: 22:57 (21:57 UTC)

Prognozė

Ataskaita buvo paskelbta 4 valandos ir 57 minutes, ne 17:00 UTC
Prognozė galioja nuo 24 metu 18 UTC su 25 metu 18 UTC
Vėjas 8 kt iš Rytų
Matomumas 10 km arba daugiau
nėra debesų žemiau 1500 m ir nėra kamuolinių lietaus debesų
Tikimybė 30% :
Laikinai
nuo 25 metu 14 UTC su 25 metu 18 UTC
Mažai debesys ne aukštis 3000 ft
Mažai debesys ne aukštis 4000 ft, Liūtiniai kamuoliniai debesys.
perkūnija

TAF: DRZA 241700Z 2418/2518 10008KT CAVOK PROB30 TEMPO 2514/2518 TS FEW030 FEW040CB

Orai ataskaitas ir orų prognozės (METAR, TAF).

turimą stotys yra geltonos ir raudonos taškus žemėlapyje.

Perkelti pele per norėdami pamatyti stoties vardą.

Tada spustelėkite, norėdami matyti oro stebėjimo ir prognozės.

Norėdami pakeisti žemėlapį: spustelėkite ant žalios mygtukų su juodo kryžiaus žemyn,; žalią mygtuką su brūkšneliu, jei norite nutolinti; arba žalių rodyklių gretimoms žemėlapius.


METAR-TAF: